Time;durP1;ratioP1;P1;durP2;ratioP2;P2;SDS_P1;SDS_P2;PMS_P1;PMS_P2;Temp;Humidity;BMP_temperature;BMP_pressure;BME280_temperature;BME280_humidity;BME280_pressure;Samples;Min_cycle;Max_cycle;Signal;HPM_P1;HPM_P2
2021/05/11 00:02:00;;;;;;;3.08;1.30;;;18.10;99.90;;;;;;5114809;28;20199;-60
2021/05/11 00:04:27;;;;;;;3.65;1.48;;;18.00;99.90;;;;;;5114567;28;20199;-59
2021/05/11 00:06:54;;;;;;;3.72;1.55;;;18.10;99.90;;;;;;5114775;28;20210;-60
2021/05/11 00:09:21;;;;;;;1.52;1.40;;;18.10;99.90;;;;;;5114379;28;20302;-60
2021/05/11 00:11:48;;;;;;;2.63;1.60;;;18.00;99.90;;;;;;5114257;28;20199;-59
2021/05/11 00:14:14;;;;;;;3.38;1.80;;;18.00;99.90;;;;;;5114487;28;20287;-58
2021/05/11 00:16:41;;;;;;;3.28;1.75;;;17.90;99.90;;;;;;5114371;28;20745;-60
2021/05/11 00:19:11;;;;;;;2.13;1.92;;;17.90;99.90;;;;;;5114607;27;20215;-60
2021/05/11 00:21:39;;;;;;;3.33;1.83;;;17.90;99.90;;;;;;5113433;28;20536;-60
2021/05/11 00:24:06;;;;;;;3.53;1.92;;;18.00;99.90;;;;;;5114417;28;20290;-59
2021/05/11 00:26:34;;;;;;;3.92;1.80;;;17.90;99.90;;;;;;5114259;28;20227;-59
2021/05/11 00:29:01;;;;;;;2.53;2.05;;;17.70;99.90;;;;;;5114251;28;20202;-58
2021/05/11 00:31:28;;;;;;;4.05;2.00;;;17.70;99.90;;;;;;5114318;28;20591;-59
2021/05/11 00:33:56;;;;;;;3.60;2.00;;;17.60;99.90;;;;;;5113790;28;20199;-59
2021/05/11 00:36:23;;;;;;;3.35;2.20;;;17.50;99.90;;;;;;5114209;28;20199;-59
2021/05/11 00:38:52;;;;;;;4.10;2.30;;;17.40;99.90;;;;;;5113619;28;20704;-59
2021/05/11 00:41:19;;;;;;;4.35;2.33;;;17.50;99.90;;;;;;5113959;28;20199;-61
2021/05/11 00:43:47;;;;;;;2.90;2.40;;;17.40;99.90;;;;;;5113914;28;20204;-60
2021/05/11 00:46:15;;;;;;;3.95;2.47;;;17.40;99.90;;;;;;5113856;28;20286;-59
2021/05/11 00:48:42;;;;;;;2.70;2.50;;;17.40;99.90;;;;;;5113875;28;20200;-60
2021/05/11 00:51:10;;;;;;;3.40;2.65;;;17.40;99.90;;;;;;5113905;28;20287;-59
2021/05/11 00:53:38;;;;;;;4.22;3.42;;;17.30;99.90;;;;;;5113782;28;20224;-59
2021/05/11 00:56:07;;;;;;;6.90;3.70;;;17.30;99.90;;;;;;5113690;28;20243;-58
2021/05/11 00:58:34;;;;;;;6.97;3.83;;;17.30;99.90;;;;;;5113439;28;20298;-59
2021/05/11 01:01:01;;;;;;;4.57;3.30;;;17.30;99.90;;;;;;5113689;28;20241;-60
2021/05/11 01:03:28;;;;;;;5.85;3.53;;;17.20;99.90;;;;;;5107651;28;20226;-60
2021/05/11 01:05:55;;;;;;;4.07;3.67;;;17.30;99.90;;;;;;5093310;28;20599;-59
2021/05/11 01:08:22;;;;;;;6.07;4.00;;;17.20;99.90;;;;;;5093331;28;20288;-59
2021/05/11 01:10:49;;;;;;;4.85;3.85;;;17.10;99.90;;;;;;5093136;28;20224;-59
2021/05/11 01:13:17;;;;;;;5.18;4.03;;;17.10;99.90;;;;;;5092661;28;20299;-59
2021/05/11 01:15:48;;;;;;;4.60;4.20;;;17.10;99.90;;;;;;5093064;28;20290;-59
2021/05/11 01:18:24;;;;;;;6.40;4.65;;;17.10;99.90;;;;;;5092918;28;20214;-59
2021/05/11 01:20:52;;;;;;;4.88;4.47;;;17.00;99.90;;;;;;5093106;28;20235;-60
2021/05/11 01:26:08;;;;;;;6.05;4.30;;;16.90;99.90;;;;;;5092628;28;20671;-58
2021/05/11 01:28:45;;;;;;;7.10;4.57;;;16.70;99.90;;;;;;5092618;28;20284;-60
2021/05/11 01:45:45;;;;;;;4.32;3.60;;;16.60;99.90;;;;;;5072533;28;20275;-60
2021/05/11 01:48:20;;;;;;;4.30;3.75;;;16.60;99.90;;;;;;5072382;28;20204;-59
2021/05/11 01:50:55;;;;;;;5.97;3.58;;;16.50;99.90;;;;;;5072237;28;20598;-58
2021/05/11 01:53:44;;;;;;;4.63;3.90;;;16.50;99.90;;;;;;5072527;28;20275;-59
2021/05/11 01:59:29;;;;;;;4.47;3.97;;;16.40;99.90;;;;;;5075098;28;20243;-59
2021/05/11 02:10:45;;;;;;;6.57;4.00;;;16.40;99.90;;;;;;5092137;28;20229;-59
2021/05/11 02:24:19;;;;;;;5.28;4.15;;;16.20;99.90;;;;;;5092483;28;20271;-59
2021/05/11 02:26:46;;;;;;;4.85;4.13;;;16.20;99.90;;;;;;5092015;28;20545;-59
2021/05/11 02:29:14;;;;;;;4.75;4.35;;;16.20;99.90;;;;;;5092279;28;20229;-59
2021/05/11 02:31:41;;;;;;;4.95;4.45;;;16.10;99.90;;;;;;5092422;28;20235;-60
2021/05/11 02:34:08;;;;;;;4.43;4.03;;;16.10;99.90;;;;;;5092084;28;20303;-59
2021/05/11 02:36:34;;;;;;;5.45;4.32;;;16.10;99.90;;;;;;5092374;28;20196;-58
2021/05/11 02:39:02;;;;;;;5.63;4.20;;;16.10;99.90;;;;;;5091829;28;20232;-59
2021/05/11 02:41:29;;;;;;;4.28;3.88;;;16.10;99.90;;;;;;5091835;28;20739;-59
2021/05/11 02:43:57;;;;;;;4.38;3.95;;;16.00;99.90;;;;;;5092131;28;20234;-59
2021/05/11 02:46:24;;;;;;;4.50;4.10;;;15.90;99.90;;;;;;5095187;28;20204;-60
2021/05/11 02:48:51;;;;;;;6.53;3.85;;;15.80;99.90;;;;;;5095894;28;20695;-60
2021/05/11 02:51:18;;;;;;;4.50;4.10;;;15.80;99.90;;;;;;5095057;28;20202;-58
2021/05/11 02:53:45;;;;;;;4.03;3.70;;;15.70;99.90;;;;;;5095538;28;20602;-59
2021/05/11 02:56:12;;;;;;;3.72;3.28;;;15.80;99.90;;;;;;5095102;28;20226;-60
2021/05/11 02:58:39;;;;;;;4.10;3.70;;;15.70;99.90;;;;;;5094483;28;20667;-60
2021/05/11 03:01:05;;;;;;;3.95;3.55;;;15.70;99.90;;;;;;5095541;28;20252;-59
2021/05/11 03:03:33;;;;;;;4.05;3.72;;;15.80;99.90;;;;;;5095201;28;20593;-60
2021/05/11 03:06:00;;;;;;;4.05;3.63;;;15.80;99.90;;;;;;5095626;28;20231;-61
2021/05/11 03:08:27;;;;;;;4.35;3.95;;;15.80;99.90;;;;;;5095621;28;20235;-59
2021/05/11 03:10:54;;;;;;;4.00;3.60;;;15.70;99.90;;;;;;5095312;28;20323;-59
2021/05/11 03:13:20;;;;;;;3.85;3.45;;;15.90;99.90;;;;;;5094997;28;20294;-59
2021/05/11 03:15:47;;;;;;;5.43;3.63;;;15.80;99.90;;;;;;5095365;28;20228;-59
2021/05/11 03:18:14;;;;;;;4.65;3.70;;;15.90;99.90;;;;;;5095438;28;20588;-59
2021/05/11 03:20:42;;;;;;;4.38;3.97;;;15.90;99.90;;;;;;5094894;28;20906;-59
2021/05/11 03:23:09;;;;;;;5.75;4.03;;;15.90;99.90;;;;;;5095114;28;20210;-59
2021/05/11 03:25:36;;;;;;;4.18;3.78;;;15.80;99.90;;;;;;5094703;28;20287;-58
2021/05/11 03:28:03;;;;;;;4.20;3.80;;;15.90;99.90;;;;;;5095211;28;20593;-59
2021/05/11 03:30:30;;;;;;;3.92;3.55;;;15.80;99.90;;;;;;5094647;28;20777;-59
2021/05/11 03:32:56;;;;;;;3.92;3.63;;;15.80;99.90;;;;;;5095047;28;20303;-59
2021/05/11 03:35:23;;;;;;;4.18;3.70;;;15.80;99.90;;;;;;5094978;28;20296;-59
2021/05/11 03:37:52;;;;;;;3.65;3.15;;;15.90;99.90;;;;;;5094624;28;20224;-60
2021/05/11 03:40:19;;;;;;;4.85;3.92;;;15.90;99.90;;;;;;5094607;28;20220;-59
2021/05/11 03:42:52;;;;;;;4.28;3.80;;;16.00;99.90;;;;;;5094864;28;20283;-60
2021/05/11 03:45:20;;;;;;;5.22;4.18;;;15.90;99.90;;;;;;5094700;28;20180;-59
2021/05/11 03:47:48;;;;;;;4.78;3.90;;;16.00;99.90;;;;;;5094880;28;20295;-59
2021/05/11 03:50:16;;;;;;;3.95;3.65;;;16.00;99.90;;;;;;5094574;28;20208;-59
2021/05/11 03:52:44;;;;;;;5.75;4.40;;;15.90;99.90;;;;;;5094481;28;20200;-58
2021/05/11 03:55:13;;;;;;;6.43;4.20;;;16.00;99.90;;;;;;5094490;28;20291;-59
2021/05/11 03:57:40;;;;;;;4.32;3.92;;;16.10;99.90;;;;;;5094450;28;20291;-59
2021/05/11 04:00:09;;;;;;;5.30;4.05;;;16.00;99.90;;;;;;5093909;28;20707;-59
2021/05/11 04:02:37;;;;;;;4.78;4.30;;;16.10;99.90;;;;;;5094344;28;20208;-60
2021/05/11 04:05:08;;;;;;;5.15;4.25;;;16.00;99.90;;;;;;5094434;28;20196;-60
2021/05/11 04:07:37;;;;;;;4.50;4.05;;;16.10;99.90;;;;;;5094454;28;20223;-58
2021/05/11 04:10:11;;;;;;;4.82;4.35;;;16.10;99.90;;;;;;5093765;28;20698;-60
2021/05/11 04:18:11;;;;;;;5.93;4.10;;;16.00;99.90;;;;;;5094209;28;20601;-59
2021/05/11 04:20:38;;;;;;;6.47;4.35;;;16.00;99.90;;;;;;5094102;28;20220;-59
2021/05/11 04:23:05;;;;;;;4.88;4.38;;;16.00;99.90;;;;;;5094026;28;20239;-59
2021/05/11 04:25:33;;;;;;;5.43;4.22;;;16.20;99.90;;;;;;5093869;28;20195;-58
2021/05/11 04:28:01;;;;;;;5.75;4.57;;;16.30;99.90;;;;;;5094013;28;20234;-59
2021/05/11 04:30:29;;;;;;;4.60;4.03;;;16.30;99.90;;;;;;5093700;28;20253;-59
2021/05/11 04:32:56;;;;;;;6.20;4.28;;;16.20;99.90;;;;;;5093847;28;20283;-59
2021/05/11 04:35:24;;;;;;;4.93;4.43;;;16.20;99.90;;;;;;5093698;28;20533;-60
2021/05/11 04:37:51;;;;;;;5.68;4.68;;;16.20;99.90;;;;;;5093442;28;20281;-58
2021/05/11 04:40:19;;;;;;;6.57;5.00;;;16.20;99.90;;;;;;5092841;28;20277;-59
2021/05/11 04:42:46;;;;;;;5.13;4.43;;;16.30;99.90;;;;;;5092951;28;20290;-60
2021/05/11 04:45:19;;;;;;;5.00;4.50;;;16.40;99.90;;;;;;5092239;28;20235;-59
2021/05/11 04:47:47;;;;;;;6.75;4.90;;;16.40;99.90;;;;;;5092972;28;20192;-59
2021/05/11 04:50:16;;;;;;;5.22;4.70;;;16.50;99.90;;;;;;5093581;28;20228;-60
2021/05/11 04:52:44;;;;;;;5.85;5.25;;;16.70;99.90;;;;;;5093400;28;20203;-59
2021/05/11 04:55:13;;;;;;;5.68;5.18;;;16.80;99.90;;;;;;5093230;28;20622;-59
2021/05/11 04:57:40;;;;;;;7.72;5.10;;;16.90;99.90;;;;;;5093359;28;20302;-60
2021/05/11 05:00:10;;;;;;;6.72;4.45;;;16.90;99.90;;;;;;5093092;28;20220;-60
2021/05/11 05:02:40;;;;;;;6.47;5.10;;;16.90;99.90;;;;;;5093299;28;20200;-59
2021/05/11 05:05:09;;;;;;;5.50;5.03;;;17.00;99.90;;;;;;5093193;28;20211;-60
2021/05/11 05:07:36;;;;;;;5.05;4.65;;;17.00;99.90;;;;;;5092727;28;20208;-59
2021/05/11 05:10:04;;;;;;;6.68;4.93;;;17.00;99.90;;;;;;5093030;28;20200;-60
2021/05/11 05:12:32;;;;;;;6.47;5.00;;;17.00;99.90;;;;;;5092801;28;20240;-60
2021/05/11 05:14:59;;;;;;;6.28;5.10;;;17.00;99.90;;;;;;5093034;28;20196;-58
2021/05/11 05:17:27;;;;;;;7.50;5.13;;;17.00;99.90;;;;;;5092994;28;20298;-59
2021/05/11 05:19:55;;;;;;;9.13;5.32;;;17.20;99.90;;;;;;5092711;28;20223;-58
2021/05/11 05:22:22;;;;;;;8.15;4.82;;;17.40;99.90;;;;;;5093047;28;20262;-59
2021/05/11 05:24:52;;;;;;;8.02;5.40;;;17.40;99.90;;;;;;5092788;28;20315;-60
2021/05/11 05:27:21;;;;;;;5.28;4.60;;;17.50;99.90;;;;;;5092501;28;20652;-59
2021/05/11 05:29:49;;;;;;;5.63;4.80;;;17.60;99.90;;;;;;5092444;28;20655;-58
2021/05/11 05:32:17;;;;;;;5.43;4.90;;;17.70;99.90;;;;;;5092753;28;20239;-59
2021/05/11 05:34:45;;;;;;;5.07;4.57;;;18.00;99.90;;;;;;5092513;28;20203;-59
2021/05/11 05:37:14;;;;;;;10.48;5.20;;;18.00;99.90;;;;;;5092373;28;20224;-59
2021/05/11 05:39:43;;;;;;;7.47;4.82;;;18.20;99.90;;;;;;5092796;28;20235;-59
2021/05/11 05:42:10;;;;;;;7.63;4.55;;;18.30;99.90;;;;;;5092572;28;20203;-59
2021/05/11 05:44:38;;;;;;;8.07;4.60;;;18.30;99.90;;;;;;5092372;28;20652;-58
2021/05/11 05:47:05;;;;;;;5.30;4.80;;;18.40;99.90;;;;;;5092739;28;20270;-59
2021/05/11 05:49:39;;;;;;;10.75;4.40;;;18.70;99.90;;;;;;5092715;28;20200;-61
2021/05/11 05:52:09;;;;;;;9.65;4.30;;;19.10;99.90;;;;;;5092647;28;20241;-59
2021/05/11 05:54:37;;;;;;;5.90;4.07;;;19.30;99.90;;;;;;5092436;28;20193;-58
2021/05/11 05:57:05;;;;;;;4.65;4.20;;;19.60;99.90;;;;;;5092447;28;20204;-63
2021/05/11 05:59:34;;;;;;;6.50;3.90;;;19.70;99.90;;;;;;5092374;28;20232;-63
2021/05/11 06:02:02;;;;;;;5.38;4.18;;;19.80;99.90;;;;;;5092431;28;20215;-63
2021/05/11 06:04:30;;;;;;;4.07;3.53;;;19.80;99.90;;;;;;5092511;28;20200;-63
2021/05/11 06:06:57;;;;;;;9.35;4.57;;;19.80;99.90;;;;;;5092258;28;20222;-62
2021/05/11 06:09:24;;;;;;;5.97;4.40;;;19.70;99.90;;;;;;5092550;28;20282;-62
2021/05/11 06:11:57;;;;;;;5.68;4.15;;;19.60;99.90;;;;;;5091953;28;20199;-63
2021/05/11 06:14:40;;;;;;;5.25;4.45;;;19.30;99.90;;;;;;5092391;28;20280;-62
2021/05/11 06:17:14;;;;;;;4.65;4.05;;;19.10;99.90;;;;;;5092092;28;20222;-62
2021/05/11 06:19:42;;;;;;;6.22;4.50;;;18.80;99.90;;;;;;5092712;28;20242;-63
2021/05/11 06:22:10;;;;;;;5.47;4.05;;;18.70;99.90;;;;;;5096141;28;20649;-62
2021/05/11 06:24:38;;;;;;;5.20;4.03;;;18.50;99.90;;;;;;5096224;28;20290;-64
2021/05/11 06:27:07;;;;;;;5.90;3.78;;;18.60;99.90;;;;;;5095714;28;20276;-63
2021/05/11 06:29:36;;;;;;;4.50;4.10;;;18.60;99.90;;;;;;5095139;28;20673;-63
2021/05/11 06:32:05;;;;;;;4.68;4.28;;;18.70;99.90;;;;;;5096110;28;20239;-63
2021/05/11 06:34:33;;;;;;;5.90;3.75;;;18.70;99.90;;;;;;5095763;28;20635;-64
2021/05/11 06:37:00;;;;;;;4.07;3.72;;;18.70;99.90;;;;;;5095594;28;20204;-63
2021/05/11 06:39:28;;;;;;;4.43;4.03;;;18.80;99.90;;;;;;5096000;28;20214;-63
2021/05/11 06:41:57;;;;;;;5.18;4.10;;;18.80;99.90;;;;;;5095665;28;20311;-63
2021/05/11 06:44:33;;;;;;;5.15;3.83;;;18.80;99.90;;;;;;5095780;28;20206;-63
2021/05/11 06:47:20;;;;;;;5.75;3.72;;;18.80;99.90;;;;;;5095936;28;20265;-63
2021/05/11 06:50:11;;;;;;;4.57;3.90;;;18.90;99.90;;;;;;5095924;28;20188;-63
2021/05/11 06:52:53;;;;;;;4.75;3.83;;;19.00;99.90;;;;;;5095528;28;20710;-63
2021/05/11 06:55:21;;;;;;;5.20;3.33;;;19.10;99.90;;;;;;5095656;28;20259;-63
2021/05/11 06:57:48;;;;;;;7.78;3.90;;;19.00;99.90;;;;;;5094498;28;20727;-63
2021/05/11 07:00:20;;;;;;;4.10;3.33;;;19.20;99.90;;;;;;5094794;28;20311;-63
2021/05/11 07:02:47;;;;;;;5.25;3.47;;;19.20;99.90;;;;;;5095136;28;20320;-63
2021/05/11 07:05:15;;;;;;;5.50;3.80;;;19.30;99.90;;;;;;5095564;28;20290;-63
2021/05/11 07:07:44;;;;;;;4.32;3.50;;;19.40;99.90;;;;;;5095173;28;20559;-63
2021/05/11 07:10:34;;;;;;;5.05;3.58;;;19.50;99.90;;;;;;5094995;28;20537;-64
2021/05/11 07:13:11;;;;;;;4.10;3.70;;;19.60;99.90;;;;;;5095065;28;20212;-63
2021/05/11 07:15:42;;;;;;;4.22;3.53;;;19.80;99.90;;;;;;5094955;28;20639;-64
2021/05/11 07:18:12;;;;;;;5.50;3.88;;;19.90;99.90;;;;;;5088886;28;20200;-63
2021/05/11 07:20:43;;;;;;;3.97;3.58;;;20.10;99.90;;;;;;5095130;28;20228;-64
2021/05/11 07:23:15;;;;;;;4.30;3.90;;;20.10;99.90;;;;;;5095178;28;20207;-65
2021/05/11 07:25:52;;;;;;;3.97;3.58;;;20.30;99.90;;;;;;5094978;28;20227;-63
2021/05/11 07:31:13;;;;;;;4.82;3.95;;;20.20;99.90;;;;;;5092562;28;20208;-64
2021/05/11 07:33:43;;;;;;;8.10;3.60;;;20.10;99.90;;;;;;5088799;28;20261;-63
2021/05/11 07:36:11;;;;;;;6.47;4.05;;;20.00;99.90;;;;;;5092780;28;20231;-63
2021/05/11 07:38:39;;;;;;;5.00;4.20;;;19.90;99.90;;;;;;5094610;28;20273;-63
2021/05/11 07:41:08;;;;;;;6.15;4.50;;;19.80;99.90;;;;;;5094776;28;20673;-63
2021/05/11 07:43:37;;;;;;;5.43;4.20;;;19.60;99.90;;;;;;5094706;28;20210;-63
2021/05/11 07:49:26;;;;;;;7.88;4.28;;;19.30;99.90;;;;;;5093734;28;20231;-63
2021/05/11 08:16:55;;;;;;;6.40;4.40;;;19.10;99.90;;;;;;5094018;28;20222;-63
2021/05/11 08:19:42;;;;;;;4.90;4.40;;;19.30;99.90;;;;;;5093680;28;20694;-63
2021/05/11 08:22:30;;;;;;;5.60;5.03;;;19.20;99.90;;;;;;5093584;28;20240;-62
2021/05/11 08:27:45;;;;;;;7.53;4.70;;;19.10;99.90;;;;;;5093803;28;20188;-62
2021/05/11 08:30:13;;;;;;;5.07;4.68;;;19.20;99.90;;;;;;5093888;28;20283;-62
2021/05/11 08:32:41;;;;;;;5.93;5.00;;;19.20;99.90;;;;;;5093448;28;20670;-62
2021/05/11 08:35:09;;;;;;;7.13;4.72;;;19.30;99.90;;;;;;5093859;28;20283;-63
2021/05/11 08:37:37;;;;;;;5.72;5.13;;;19.30;99.90;;;;;;5093349;28;20604;-63
2021/05/11 08:40:06;;;;;;;5.30;4.50;;;19.30;99.90;;;;;;5093509;28;20196;-62
2021/05/11 08:42:34;;;;;;;6.70;4.63;;;19.30;99.90;;;;;;5092852;28;20224;-62
2021/05/11 08:45:04;;;;;;;7.80;4.53;;;19.30;99.90;;;;;;5093782;28;20211;-62
2021/05/11 08:47:32;;;;;;;5.95;5.10;;;19.50;99.90;;;;;;5093590;28;20235;-63
2021/05/11 08:50:00;;;;;;;6.78;5.07;;;19.50;99.90;;;;;;5093626;28;20196;-63
2021/05/11 08:52:41;;;;;;;6.20;5.05;;;19.60;99.90;;;;;;5093802;28;20304;-62
2021/05/11 09:06:40;;;;;;;4.78;4.38;;;19.60;99.90;;;;;;5075455;28;20699;-62
2021/05/11 09:09:24;;;;;;;7.72;5.78;;;19.70;99.90;;;;;;5074984;28;20284;-61
2021/05/11 09:26:09;;;;;;;8.82;5.60;;;19.80;99.90;;;;;;5073130;28;20276;-61
2021/05/11 09:28:42;;;;;;;7.07;4.47;;;19.90;99.90;;;;;;5072609;28;20272;-63
2021/05/11 09:31:35;;;;;;;8.63;5.88;;;20.00;99.90;;;;;;5073055;28;20177;-62
2021/05/11 09:34:17;;;;;;;7.53;6.82;;;20.20;99.90;;;;;;5073002;28;20594;-62
2021/05/11 09:45:53;;;;;;;6.30;5.72;;;20.60;99.90;;;;;;5072437;28;20271;-58
2021/05/11 09:54:25;;;;;;;9.32;6.10;;;20.80;99.90;;;;;;5070015;28;20253;-58
2021/05/11 09:57:00;;;;;;;8.07;4.68;;;20.90;99.90;;;;;;5076328;28;20189;-55
2021/05/11 09:59:58;;;;;;;5.90;5.30;;;21.10;99.90;;;;;;5087355;28;20252;-56
2021/05/11 10:40:32;;;;;;;10.73;7.82;;;21.70;99.90;;;;;;5070164;28;20206;-57
2021/05/11 10:48:41;;;;;;;9.40;7.03;;;21.60;99.90;;;;;;5095345;28;20234;-62
2021/05/11 10:51:23;;;;;;;8.27;7.47;;;21.70;99.90;;;;;;5095242;28;20227;-63
2021/05/11 10:54:03;;;;;;;6.20;5.55;;;21.80;99.90;;;;;;5094679;28;20238;-63
2021/05/11 10:56:42;;;;;;;8.25;6.68;;;22.10;99.90;;;;;;5094562;28;20180;-63
2021/05/11 10:59:20;;;;;;;7.57;6.88;;;22.30;99.90;;;;;;5091755;28;20663;-63
2021/05/11 11:01:50;;;;;;;6.80;6.13;;;22.40;99.90;;;;;;5095365;28;20206;-62
2021/05/11 11:04:21;;;;;;;7.40;6.70;;;22.50;99.90;;;;;;5095252;28;20212;-62
2021/05/11 11:07:04;;;;;;;8.35;7.55;;;22.50;99.90;;;;;;5094656;28;20211;-63
2021/05/11 11:09:34;;;;;;;9.05;8.25;;;22.50;99.90;;;;;;5095533;28;20211;-63
2021/05/11 11:12:03;;;;;;;7.90;7.20;;;22.30;99.90;;;;;;5095046;28;20687;-63
2021/05/11 11:14:36;;;;;;;9.38;7.95;;;22.30;99.90;;;;;;5095103;28;20227;-62
2021/05/11 11:17:06;;;;;;;8.88;8.07;;;22.10;99.90;;;;;;5095048;28;20216;-62
2021/05/11 11:19:34;;;;;;;8.05;7.25;;;22.10;99.90;;;;;;5094974;28;20203;-62
2021/05/11 11:24:54;;;;;;;8.25;6.78;;;22.10;99.90;;;;;;5093752;28;20223;-63
2021/05/11 11:27:25;;;;;;;10.43;7.53;;;22.10;99.90;;;;;;5094564;28;20220;-63
2021/05/11 11:30:06;;;;;;;9.63;8.48;;;22.40;99.90;;;;;;5094315;28;20200;-63
2021/05/11 11:32:34;;;;;;;8.50;7.57;;;22.40;99.90;;;;;;5094708;28;20696;-61
2021/05/11 11:35:03;;;;;;;8.70;7.78;;;22.50;99.90;;;;;;5094888;28;20204;-63
2021/05/11 11:37:31;;;;;;;9.25;8.27;;;22.40;99.90;;;;;;5094559;28;20318;-62
2021/05/11 11:40:01;;;;;;;8.90;8.07;;;22.50;99.90;;;;;;5094613;28;20204;-62
2021/05/11 11:42:33;;;;;;;9.75;8.07;;;22.80;99.90;;;;;;5094738;28;20295;-63
2021/05/11 11:45:00;;;;;;;10.15;7.43;;;22.90;99.90;;;;;;5094287;28;20219;-63
2021/05/11 11:47:29;;;;;;;8.32;7.53;;;23.00;99.90;;;;;;5094533;28;20302;-62
2021/05/11 11:49:59;;;;;;;9.60;8.57;;;23.30;99.90;;;;;;5094068;28;20632;-63
2021/05/11 11:52:31;;;;;;;9.55;8.32;;;23.60;99.90;;;;;;5094519;28;20237;-62
2021/05/11 11:55:21;;;;;;;8.25;6.80;;;23.70;99.90;;;;;;5094699;28;20184;-63
2021/05/11 11:57:53;;;;;;;9.63;7.68;;;23.70;99.90;;;;;;5094311;28;20261;-62
2021/05/11 12:00:23;;;;;;;9.20;7.78;;;23.70;99.90;;;;;;5094250;28;20196;-63
2021/05/11 12:02:52;;;;;;;8.35;6.90;;;23.70;99.90;;;;;;5094140;28;20266;-63
2021/05/11 12:05:21;;;;;;;11.35;8.50;;;23.60;99.90;;;;;;5093678;28;20200;-62
2021/05/11 12:08:01;;;;;;;7.95;7.07;;;23.30;99.90;;;;;;5094340;28;20251;-63
2021/05/11 12:10:31;;;;;;;8.18;7.47;;;23.20;99.90;;;;;;5094413;28;20582;-62
2021/05/11 12:13:03;;;;;;;7.70;6.72;;;23.10;99.90;;;;;;5093947;28;20735;-62
2021/05/11 12:15:30;;;;;;;8.48;7.68;;;23.20;99.90;;;;;;5094056;28;20180;-63
2021/05/11 12:18:01;;;;;;;7.80;7.10;;;23.40;99.90;;;;;;5093095;28;20291;-63
2021/05/11 12:20:34;;;;;;;9.27;8.10;;;23.60;99.90;;;;;;5094168;28;20188;-62
2021/05/11 12:23:04;;;;;;;9.02;8.13;;;23.50;99.90;;;;;;5094127;28;20277;-63
2021/05/11 12:25:32;;;;;;;8.80;7.80;;;23.40;99.90;;;;;;5093958;28;20295;-62
2021/05/11 12:28:00;;;;;;;9.75;8.52;;;23.30;99.90;;;;;;5093623;28;20686;-62
2021/05/11 12:30:41;;;;;;;7.25;6.47;;;23.50;99.90;;;;;;5094076;28;20286;-62
2021/05/11 12:33:11;;;;;;;6.47;5.50;;;23.80;99.90;;;;;;5093638;28;20793;-62
2021/05/11 12:35:40;;;;;;;9.55;8.13;;;24.10;99.90;;;;;;5093935;28;20200;-63
2021/05/11 12:38:17;;;;;;;10.18;8.15;;;24.20;99.90;;;;;;5093414;28;20227;-62
2021/05/11 12:41:00;;;;;;;9.02;8.23;;;24.10;99.90;;;;;;5093408;28;20183;-63
2021/05/11 12:43:44;;;;;;;7.20;6.40;;;24.10;99.90;;;;;;5093506;28;20200;-63
2021/05/11 12:46:17;;;;;;;9.23;7.60;;;24.00;99.90;;;;;;5093576;28;20220;-63
2021/05/11 12:48:56;;;;;;;8.73;7.68;;;24.00;99.90;;;;;;5093329;28;20624;-62
2021/05/11 12:51:43;;;;;;;9.13;7.47;;;23.70;99.90;;;;;;5093658;28;20234;-63
2021/05/11 12:54:25;;;;;;;8.13;7.20;;;23.60;99.90;;;;;;5093620;28;20188;-62
2021/05/11 12:59:52;;;;;;;8.05;7.35;;;23.40;99.90;;;;;;5089429;28;20203;-63
2021/05/11 13:02:37;;;;;;;7.80;7.05;;;23.40;99.90;;;;;;5092743;28;20702;-62
2021/05/11 13:14:27;;;;;;;7.93;7.13;;;23.10;99.90;;;;;;5081037;28;20284;-63
2021/05/11 13:17:00;;;;;;;6.63;5.57;;;23.30;99.90;;;;;;5074202;28;20193;-63
2021/05/11 13:19:57;;;;;;;7.65;6.97;;;23.30;99.90;;;;;;5092950;28;20627;-62
2021/05/11 13:22:30;;;;;;;7.82;6.88;;;23.40;99.90;;;;;;5092813;28;20714;-62
2021/05/11 13:25:13;;;;;;;6.55;5.22;;;23.60;99.90;;;;;;5092960;28;20184;-64
2021/05/11 13:27:45;;;;;;;8.63;5.72;;;23.90;99.90;;;;;;5092859;28;20211;-63
2021/05/11 13:30:32;;;;;;;6.72;5.13;;;24.00;99.90;;;;;;5092204;28;20219;-63
2021/05/11 13:33:12;;;;;;;10.88;5.82;;;24.10;99.90;;;;;;5080311;28;20738;-62
2021/05/11 13:35:39;;;;;;;6.50;5.53;;;24.10;99.90;;;;;;5072432;28;20250;-63
2021/05/11 13:38:07;;;;;;;8.55;6.28;;;24.30;99.90;;;;;;5071900;28;20322;-63
2021/05/11 13:40:35;;;;;;;9.57;6.50;;;24.40;99.90;;;;;;5072378;28;20676;-65
2021/05/11 13:43:02;;;;;;;6.25;5.75;;;24.50;99.90;;;;;;5072401;28;20224;-62
2021/05/11 13:45:31;;;;;;;7.32;5.30;;;24.70;99.90;;;;;;5072392;28;20201;-63
2021/05/11 13:48:01;;;;;;;9.05;7.35;;;24.90;99.90;;;;;;5072532;28;20311;-62
2021/05/11 13:50:41;;;;;;;7.95;6.68;;;24.90;99.90;;;;;;5072583;28;20204;-62
2021/05/11 13:53:09;;;;;;;7.70;6.90;;;24.70;99.90;;;;;;5072243;28;20644;-63
2021/05/11 13:55:43;;;;;;;7.60;6.90;;;24.50;99.90;;;;;;5072506;28;20215;-64
2021/05/11 14:03:35;;;;;;;9.10;6.10;;;24.30;99.90;;;;;;5058634;28;20224;-62
2021/05/11 14:06:02;;;;;;;8.00;6.60;;;24.40;99.90;;;;;;5092667;28;20294;-63
2021/05/11 14:08:30;;;;;;;7.90;7.10;;;24.40;99.90;;;;;;5092342;28;20659;-63
2021/05/11 14:10:57;;;;;;;8.82;5.75;;;24.20;99.90;;;;;;5092209;28;20210;-63
2021/05/11 14:13:25;;;;;;;8.38;7.05;;;24.20;99.90;;;;;;5092067;28;20223;-63
2021/05/11 14:15:53;;;;;;;10.27;6.50;;;24.30;99.90;;;;;;5092553;28;20258;-61
2021/05/11 14:18:20;;;;;;;6.22;5.45;;;24.40;99.90;;;;;;5092384;28;20235;-62
2021/05/11 14:20:48;;;;;;;9.25;5.93;;;24.30;99.90;;;;;;5092150;28;20211;-63
2021/05/11 14:23:15;;;;;;;7.97;5.38;;;24.30;99.90;;;;;;5091960;28;20216;-62
2021/05/11 14:25:43;;;;;;;6.47;5.63;;;24.20;99.90;;;;;;5092117;28;20233;-64
2021/05/11 14:28:10;;;;;;;5.28;4.78;;;24.20;99.90;;;;;;5091649;28;20206;-63
2021/05/11 14:30:38;;;;;;;7.78;5.47;;;24.10;99.90;;;;;;5092126;28;20283;-63
2021/05/11 14:33:06;;;;;;;8.02;6.07;;;24.00;99.90;;;;;;5091979;28;20197;-63
2021/05/11 14:35:33;;;;;;;8.20;6.45;;;23.90;99.90;;;;;;5092039;28;20211;-64
2021/05/11 14:38:01;;;;;;;7.78;6.60;;;23.90;99.90;;;;;;5091700;28;20235;-62
2021/05/11 14:40:28;;;;;;;8.63;7.07;;;23.70;99.90;;;;;;5091962;28;20644;-63
2021/05/11 14:42:56;;;;;;;7.25;6.55;;;23.60;99.90;;;;;;5095666;28;20620;-63
2021/05/11 14:45:24;;;;;;;8.05;7.35;;;23.70;99.90;;;;;;5095902;28;20295;-62
2021/05/11 14:47:51;;;;;;;7.32;6.43;;;23.80;99.90;;;;;;5095856;28;20200;-63
2021/05/11 14:50:21;;;;;;;8.98;6.55;;;23.90;99.90;;;;;;5095810;28;20204;-64
2021/05/11 14:52:52;;;;;;;9.35;7.50;;;24.00;99.90;;;;;;5096155;28;20202;-63
2021/05/11 14:55:24;;;;;;;8.98;7.95;;;24.20;99.90;;;;;;5095865;28;20212;-64
2021/05/11 14:57:51;;;;;;;7.63;6.75;;;24.30;99.90;;;;;;5095675;28;20191;-63
2021/05/11 15:00:22;;;;;;;6.57;5.97;;;24.30;99.90;;;;;;5095476;28;20293;-62
2021/05/11 15:02:50;;;;;;;8.10;6.78;;;24.40;99.90;;;;;;5095485;28;20224;-63
2021/05/11 15:05:17;;;;;;;7.90;7.18;;;24.60;99.90;;;;;;5095588;28;20295;-64
2021/05/11 15:07:48;;;;;;;7.85;7.05;;;24.60;99.90;;;;;;5095591;28;20628;-63
2021/05/11 15:10:16;;;;;;;6.43;5.70;;;24.50;99.90;;;;;;5095412;28;20260;-63
2021/05/11 15:12:44;;;;;;;8.27;6.15;;;24.50;99.90;;;;;;5095343;28;20235;-63
2021/05/11 15:15:15;;;;;;;9.07;7.80;;;24.30;99.90;;;;;;5094958;28;20249;-63
2021/05/11 15:17:59;;;;;;;7.50;6.80;;;24.30;99.90;;;;;;5095104;28;20184;-62
2021/05/11 15:20:26;;;;;;;6.90;6.20;;;24.20;99.90;;;;;;5095163;28;20192;-62
2021/05/11 15:23:05;;;;;;;8.90;6.60;;;24.00;99.90;;;;;;5094697;28;20215;-62
2021/05/11 15:25:33;;;;;;;9.32;7.03;;;24.00;99.90;;;;;;5094752;28;20203;-62
2021/05/11 15:28:01;;;;;;;8.90;7.80;;;24.00;99.90;;;;;;5093494;28;20204;-63
2021/05/11 15:30:30;;;;;;;9.82;8.93;;;23.80;99.90;;;;;;5093631;28;20566;-62
2021/05/11 15:32:58;;;;;;;9.95;9.05;;;23.50;99.90;;;;;;5094704;28;20251;-63
2021/05/11 15:35:32;;;;;;;9.43;8.45;;;23.10;99.90;;;;;;5093974;28;20193;-62
2021/05/11 15:38:01;;;;;;;7.90;7.28;;;22.80;99.90;;;;;;5093796;28;20433;-63
2021/05/11 15:40:31;;;;;;;10.30;9.15;;;22.60;99.90;;;;;;5094713;28;20288;-66
2021/05/11 15:42:59;;;;;;;9.07;7.80;;;22.40;99.90;;;;;;5093880;28;20628;-61
2021/05/11 15:45:26;;;;;;;9.80;8.80;;;22.30;99.90;;;;;;5093998;28;20235;-65
2021/05/11 15:47:56;;;;;;;7.97;7.28;;;22.20;99.90;;;;;;5094147;28;20395;-62
2021/05/11 15:50:27;;;;;;;9.63;8.73;;;22.10;99.90;;;;;;5094108;28;20242;-62
2021/05/11 15:52:55;;;;;;;7.95;7.18;;;22.00;99.90;;;;;;5094241;28;20263;-64
2021/05/11 15:55:23;;;;;;;12.77;8.88;;;21.90;99.90;;;;;;5094060;28;20628;-60
2021/05/11 15:57:52;;;;;;;10.07;8.15;;;21.80;99.90;;;;;;5094100;28;20650;-60
2021/05/11 16:00:20;;;;;;;10.15;8.70;;;21.70;99.90;;;;;;5093979;28;20210;-60
2021/05/11 16:02:48;;;;;;;10.02;9.18;;;21.60;99.90;;;;;;5093799;28;20200;-60
2021/05/11 16:05:17;;;;;;;9.98;9.18;;;21.40;99.90;;;;;;5094109;28;20254;-59
2021/05/11 16:07:45;;;;;;;11.07;10.02;;;21.30;99.90;;;;;;5093677;28;20648;-61